Time;durP1;ratioP1;P1;durP2;ratioP2;P2;SDS_P1;SDS_P2;PMS_P1;PMS_P2;Temp;Humidity;BMP_temperature;BMP_pressure;BME280_temperature;BME280_humidity;BME280_pressure;Samples;Min_cycle;Max_cycle;Signal;HPM_P1;HPM_P2
2022/01/25 00:09:48;;;;;;;;;;;-3.80;81.10;;;-5.40;77.77;97748.69;4088298;34;20218;-88
2022/01/25 00:15:14;;;;;;;;;;;-3.80;81.30;;;-5.40;77.23;97751.34;4119926;34;20217;-87
2022/01/25 00:26:16;;;;;;;;;;;-3.80;81.00;;;-5.43;77.00;97738.25;4065263;34;19912;-87
2022/01/25 00:28:48;;;;;;;;;;;-3.80;80.90;;;-5.45;77.32;97729.53;4065470;34;20288;-87
2022/01/25 00:31:17;;;;;;;;;;;-3.80;81.00;;;-5.45;77.63;97740.22;4112063;34;20219;-87
2022/01/25 00:33:48;;;;;;;;;;;-3.80;81.30;;;-5.45;77.24;97740.22;4089078;34;20208;-87
2022/01/25 00:36:19;;;;;;;;;;;-3.80;81.10;;;-5.47;77.22;97727.00;4111574;33;19990;-87
2022/01/25 00:38:48;;;;;;;;;;;-3.80;81.10;;;-5.46;77.53;97722.50;4088808;34;19904;-87
2022/01/25 00:41:16;;;;;;;;;;;-3.80;81.20;;;-5.47;77.20;97736.81;4088097;34;19903;-87
2022/01/25 00:43:46;;;;;;;;;;;-3.80;81.00;;;-5.48;77.47;97725.31;4088326;34;20514;-87
2022/01/25 00:46:14;;;;;;;;;;;-3.80;81.00;;;-5.47;77.39;97726.16;4065472;34;20214;-87
2022/01/25 00:48:46;;;;;;;;;;;-3.80;81.10;;;-5.51;77.26;97719.41;4088072;34;20240;-87
2022/01/25 00:51:36;;;;;;;;;;;-3.90;81.10;;;-5.50;76.88;97713.09;4087983;34;20239;-87
2022/01/25 00:54:10;;;;;;;;;;;-3.90;80.80;;;-5.49;77.27;97728.13;4087330;34;20209;-87
2022/01/25 00:56:40;;;;;;;;;;;-3.90;80.90;;;-5.50;77.39;97737.09;4085552;34;20809;-87
2022/01/25 00:59:11;;;;;;;;;;;-3.90;81.00;;;-5.51;77.02;97725.56;4085469;34;19911;-87
2022/01/25 01:01:40;;;;;;;;;;;-3.90;80.80;;;-5.51;77.17;97740.75;4085727;34;20243;-87
2022/01/25 01:04:09;;;;;;;;;;;-3.90;80.70;;;-5.52;77.49;97731.88;4085665;34;19904;-87
2022/01/25 01:06:41;;;;;;;;;;;-3.90;80.90;;;-5.52;77.50;97723.03;4085536;34;19911;-87
2022/01/25 01:09:11;;;;;;;;;;;-3.90;81.20;;;-5.53;77.47;97721.34;4085881;34;20229;-87
2022/01/25 01:11:47;;;;;;;;;;;-3.90;81.20;;;-5.54;77.63;97731.16;4085532;34;20446;-87
2022/01/25 01:14:20;;;;;;;;;;;-3.90;81.20;;;-5.53;77.18;97732.84;4081793;34;20216;-87
2022/01/25 01:30:48;;;;;;;;;;;-3.90;81.00;;;-5.58;77.05;97725.25;4087818;34;20222;-87
2022/01/25 01:42:09;;;;;;;;;;;-3.90;81.30;;;-5.60;77.21;97705.03;4067651;34;20238;-87
2022/01/25 01:44:52;;;;;;;;;;;-4.00;80.90;;;-5.61;77.18;97706.84;4082652;34;19903;-88
2022/01/25 01:47:26;;;;;;;;;;;-4.00;80.90;;;-5.62;77.05;97698.97;4094919;34;20083;-87
2022/01/25 01:49:56;;;;;;;;;;;-4.00;80.90;;;-5.63;77.21;97700.81;4095203;34;20219;-87
2022/01/25 01:52:24;;;;;;;;;;;-4.00;81.10;;;-5.64;77.23;97704.44;4094296;34;20160;-87
2022/01/25 01:54:54;;;;;;;;;;;-4.00;80.90;;;-5.65;77.36;97696.56;4094091;34;20205;-86
2022/01/25 01:57:23;;;;;;;;;;;-4.00;80.90;;;-5.64;77.25;97693.78;4116463;34;20214;-87
2022/01/25 01:59:53;;;;;;;;;;;-4.00;81.00;;;-5.65;77.66;97694.75;4093759;34;20088;-87
2022/01/25 02:02:22;;;;;;;;;;;-4.00;81.20;;;-5.65;77.37;97680.56;4095019;34;19911;-87
2022/01/25 02:04:50;;;;;;;;;;;-4.00;80.80;;;-5.66;77.16;97678.84;4117212;34;20497;-87
2022/01/25 02:07:19;;;;;;;;;;;-4.00;80.90;;;-5.66;76.56;97684.19;4117548;34;19903;-87
2022/01/25 02:09:47;;;;;;;;;;;-4.00;80.80;;;-5.68;76.69;97676.34;4140008;33;20202;-87
2022/01/25 02:12:17;;;;;;;;;;;-4.00;80.60;;;-5.69;76.97;97679.97;4092572;34;19926;-87
2022/01/25 02:14:47;;;;;;;;;;;-4.10;80.80;;;-5.69;76.81;97677.31;4114715;34;19987;-87
2022/01/25 02:17:38;;;;;;;;;;;-4.00;80.60;;;-5.70;77.22;97684.47;4114140;34;19903;-87
2022/01/25 02:22:59;;;;;;;;;;;-4.00;81.20;;;-5.70;76.96;97694.28;4089476;34;20223;-87
2022/01/25 02:25:27;;;;;;;;;;;-4.10;80.70;;;-5.71;76.98;97693.44;4066924;34;19908;-87
2022/01/25 02:27:56;;;;;;;;;;;-4.10;81.00;;;-5.72;77.47;97685.56;4089517;34;20211;-87
2022/01/25 02:30:24;;;;;;;;;;;-4.10;81.10;;;-5.72;76.98;97691.75;4064578;34;19912;-87
2022/01/25 02:32:53;;;;;;;;;;;-4.10;81.00;;;-5.76;77.27;97685.00;4087144;34;20579;-87
2022/01/25 02:35:23;;;;;;;;;;;-4.10;81.10;;;-5.76;77.34;97679.66;4109140;34;20142;-87
2022/01/25 02:37:51;;;;;;;;;;;-4.10;81.10;;;-5.76;77.10;97676.16;4063621;34;19904;-87
2022/01/25 02:40:21;;;;;;;;;;;-4.10;81.10;;;-5.76;77.24;97676.97;4086990;34;20556;-87
2022/01/25 02:42:51;;;;;;;;;;;-4.10;81.10;;;-5.76;76.87;97676.16;4087313;34;20448;-87
2022/01/25 02:45:19;;;;;;;;;;;-4.10;80.90;;;-5.78;77.22;97672.78;4087470;34;20472;-87
2022/01/25 02:50:35;;;;;;;;;;;-4.10;80.80;;;-5.76;77.28;97678.81;4091024;34;19903;-87
2022/01/25 02:53:04;;;;;;;;;;;-4.10;80.90;;;-5.78;77.04;97686.94;4094530;34;19926;-87
2022/01/25 02:55:32;;;;;;;;;;;-4.10;80.90;;;-5.76;77.09;97673.50;4136325;33;20445;-87
2022/01/25 02:58:01;;;;;;;;;;;-4.10;81.00;;;-5.79;77.54;97673.75;4091448;34;19903;-86
2022/01/25 03:00:29;;;;;;;;;;;-4.10;81.10;;;-5.78;77.46;97670.09;4091953;34;20205;-87
2022/01/25 03:02:58;;;;;;;;;;;-4.20;81.10;;;-5.81;77.31;97665.88;4092208;34;20246;-87
2022/01/25 03:05:27;;;;;;;;;;;-4.10;81.00;;;-5.79;77.25;97668.41;4092962;34;19903;-87
2022/01/25 03:07:57;;;;;;;;;;;-4.20;80.80;;;-5.78;77.14;97675.44;4116491;34;20506;-87
2022/01/25 03:10:46;;;;;;;;;;;-4.10;80.80;;;-5.80;76.79;97669.38;4117447;34;19910;-86
2022/01/25 03:13:47;;;;;;;;;;;-4.20;80.50;;;-5.82;77.03;97668.66;4120825;34;19911;-87
2022/01/25 03:16:39;;;;;;;;;;;-4.20;80.90;;;-5.82;77.11;97668.66;4121447;34;19912;-86
2022/01/25 03:21:52;;;;;;;;;;;-4.20;80.70;;;-5.85;76.95;97665.28;4113648;34;20193;-87
2022/01/25 03:24:22;;;;;;;;;;;-4.20;80.70;;;-5.83;76.80;97666.97;4091170;34;19903;-86
2022/01/25 03:26:51;;;;;;;;;;;-4.20;80.50;;;-5.87;76.80;97656.56;4136341;33;19914;-87
2022/01/25 03:29:19;;;;;;;;;;;-4.20;80.50;;;-5.85;77.00;97662.59;4098995;34;20376;-86
2022/01/25 03:31:48;;;;;;;;;;;-4.20;80.80;;;-5.86;76.90;97663.59;4091094;34;20201;-87
2022/01/25 03:34:16;;;;;;;;;;;-4.20;80.70;;;-5.88;76.79;97660.22;4114149;33;19926;-87
2022/01/25 03:36:45;;;;;;;;;;;-4.20;80.60;;;-5.87;77.04;97648.56;4092006;34;20210;-87
2022/01/25 03:39:13;;;;;;;;;;;-4.20;80.70;;;-5.88;77.00;97649.56;4093300;34;19903;-87
2022/01/25 03:41:43;;;;;;;;;;;-4.20;80.80;;;-5.89;76.78;97637.19;4092468;34;20210;-87
2022/01/25 03:44:12;;;;;;;;;;;-4.20;80.60;;;-5.90;77.32;97635.50;4092928;34;20223;-87
2022/01/25 03:46:55;;;;;;;;;;;-4.30;80.80;;;-5.92;77.31;97633.94;4092296;34;20208;-86
2022/01/25 03:52:12;;;;;;;;;;;-4.30;80.60;;;-5.91;77.20;97639.16;4092760;34;20158;-87
2022/01/25 03:54:41;;;;;;;;;;;-4.30;80.70;;;-5.91;76.92;97639.16;4092670;34;20205;-86
2022/01/25 03:57:11;;;;;;;;;;;-4.30;80.80;;;-5.92;76.90;97632.13;4114754;34;20187;-87
2022/01/25 03:59:39;;;;;;;;;;;-4.30;80.80;;;-5.95;77.30;97628.88;4092672;34;20473;-86
2022/01/25 04:02:08;;;;;;;;;;;-4.30;81.00;;;-5.94;77.17;97634.06;4092751;34;19903;-87
2022/01/25 04:04:36;;;;;;;;;;;-4.30;80.90;;;-5.96;77.22;97636.00;4091036;34;20194;-87
2022/01/25 04:07:09;;;;;;;;;;;-4.30;80.90;;;-5.95;77.14;97635.03;4111773;34;20215;-86
2022/01/25 04:09:38;;;;;;;;;;;-4.30;80.90;;;-5.95;77.01;97640.38;4084376;34;19903;-87
2022/01/25 04:12:08;;;;;;;;;;;-4.30;80.90;;;-5.95;76.77;97640.38;4104787;34;19910;-86
2022/01/25 04:14:38;;;;;;;;;;;-4.30;80.80;;;-5.94;76.94;97646.56;4081581;34;19908;-87
2022/01/25 04:17:09;;;;;;;;;;;-4.30;80.80;;;-5.96;76.73;97638.69;4082057;34;19910;-87
2022/01/25 04:19:43;;;;;;;;;;;-4.30;81.70;;;-5.96;77.11;97640.53;4084445;34;20211;-87
2022/01/25 04:25:05;;;;;;;;;;;-4.30;80.80;;;-5.97;76.77;97642.31;4083769;34;19931;-86
2022/01/25 04:27:34;;;;;;;;;;;-4.30;80.80;;;-6.00;77.25;97634.59;4105308;34;20199;-87
2022/01/25 04:30:05;;;;;;;;;;;-4.30;80.80;;;-5.98;76.90;97639.78;4083709;34;20201;-87
2022/01/25 04:32:42;;;;;;;;;;;-4.30;80.80;;;-5.99;76.99;97641.59;4083862;34;20216;-87
2022/01/25 04:35:24;;;;;;;;;;;-4.40;80.80;;;-6.01;77.18;97633.78;4079343;34;20203;-87
2022/01/25 04:49:03;;;;;;;;;;;-4.40;80.40;;;-6.03;76.94;97640.22;4084417;34;19903;-87
2022/01/25 04:51:43;;;;;;;;;;;-4.40;80.50;;;-6.03;76.61;97645.56;4085725;34;19916;-87
2022/01/25 04:54:14;;;;;;;;;;;-4.40;80.60;;;-6.04;76.74;97641.19;4064483;34;19911;-87
2022/01/25 04:56:49;;;;;;;;;;;-4.40;80.60;;;-6.07;77.00;97634.31;4108035;34;19903;-86
2022/01/25 04:59:25;;;;;;;;;;;-4.40;80.70;;;-6.06;76.67;97637.81;4087687;34;20218;-87
2022/01/25 05:02:01;;;;;;;;;;;-4.40;80.70;;;-6.08;76.46;97627.28;4114416;34;20210;-87
2022/01/25 05:04:34;;;;;;;;;;;-4.40;80.60;;;-6.07;76.85;97628.13;4090314;34;19907;-87
2022/01/25 05:07:07;;;;;;;;;;;-4.40;80.70;;;-6.08;77.29;97626.44;4137612;33;19918;-87
2022/01/25 05:09:37;;;;;;;;;;;-4.40;80.80;;;-6.09;76.75;97619.41;4092212;34;20198;-86
2022/01/25 05:12:09;;;;;;;;;;;-4.40;80.70;;;-6.10;76.51;97628.38;4114307;34;20209;-87
2022/01/25 05:14:48;;;;;;;;;;;-4.40;80.60;;;-6.10;76.97;97628.38;4114726;34;20200;-86
2022/01/25 05:17:22;;;;;;;;;;;-4.40;80.60;;;-6.10;76.64;97623.03;4114475;34;20192;-87
2022/01/25 05:22:35;;;;;;;;;;;-4.40;80.60;;;-6.11;76.77;97622.22;4102513;34;20222;-87
2022/01/25 05:25:05;;;;;;;;;;;-4.50;80.50;;;-6.15;76.70;97619.94;4114966;34;19904;-87
2022/01/25 05:27:33;;;;;;;;;;;-4.50;80.50;;;-6.14;76.56;97616.31;4091802;34;19903;-87
2022/01/25 05:30:02;;;;;;;;;;;-4.50;80.50;;;-6.14;77.23;97610.97;4115952;34;20240;-86
2022/01/25 05:32:34;;;;;;;;;;;-4.50;80.80;;;-6.14;76.97;97616.31;4091927;34;19907;-86
2022/01/25 05:35:03;;;;;;;;;;;-4.50;80.80;;;-6.15;77.13;97614.63;4114367;34;20210;-87
2022/01/25 05:37:36;;;;;;;;;;;-4.50;80.70;;;-6.19;77.10;97604.19;4090982;34;20509;-87
2022/01/25 05:40:13;;;;;;;;;;;-4.50;80.60;;;-6.15;77.00;97614.63;4114147;34;19903;-86
2022/01/25 05:42:51;;;;;;;;;;;-4.50;80.70;;;-6.16;77.00;97619.06;4114206;34;20215;-86
2022/01/25 05:45:36;;;;;;;;;;;-4.50;81.70;;;-6.17;76.89;97630.72;4091435;34;19910;-86
2022/01/25 05:48:06;;;;;;;;;;;-4.50;80.80;;;-6.18;77.33;97621.88;4090834;34;19903;-86
2022/01/25 05:50:35;;;;;;;;;;;-4.50;80.60;;;-6.19;77.03;97630.00;4113320;34;20229;-86
2022/01/25 05:53:03;;;;;;;;;;;-4.50;80.70;;;-6.21;77.13;97627.47;4090250;34;20146;-87
2022/01/25 05:55:32;;;;;;;;;;;-4.60;80.60;;;-6.21;76.64;97631.97;4090098;34;20210;-87
2022/01/25 05:58:01;;;;;;;;;;;-4.50;80.50;;;-6.20;76.65;97628.34;4112394;34;19907;-87
2022/01/25 06:00:29;;;;;;;;;;;-4.60;80.40;;;-6.20;77.06;97625.66;4090055;34;20464;-87
2022/01/25 06:02:58;;;;;;;;;;;-4.50;80.70;;;-6.21;76.73;97621.31;4090511;34;19903;-86
2022/01/25 06:05:28;;;;;;;;;;;-4.60;80.50;;;-6.21;76.63;97607.97;4090707;34;20453;-86
2022/01/25 06:07:56;;;;;;;;;;;-4.50;80.60;;;-6.19;76.78;97612.19;4112723;34;20200;-86
2022/01/25 06:10:25;;;;;;;;;;;-4.50;80.50;;;-6.20;76.69;97610.50;4099825;34;19903;-86
2022/01/25 06:12:53;;;;;;;;;;;-4.50;80.40;;;-6.15;77.21;97612.78;4113139;34;20236;-86
2022/01/25 06:15:22;;;;;;;;;;;-4.50;80.60;;;-6.11;76.20;97621.34;4112830;34;20217;-87
2022/01/25 06:17:51;;;;;;;;;;;-4.50;80.10;;;-6.05;76.54;97620.84;4089031;34;19929;-87
2022/01/25 06:20:20;;;;;;;;;;;-4.40;80.10;;;-5.99;76.23;97622.94;4111451;34;20496;-87
2022/01/25 06:22:49;;;;;;;;;;;-4.40;79.90;;;-5.97;75.79;97618.31;4088421;34;20570;-86
2022/01/25 06:25:18;;;;;;;;;;;-4.30;79.70;;;-5.89;76.00;97620.34;4088398;34;20212;-87
2022/01/25 06:27:47;;;;;;;;;;;-4.30;79.50;;;-5.85;75.81;97619.94;4088053;34;19903;-86
2022/01/25 06:30:17;;;;;;;;;;;-4.20;79.20;;;-5.81;75.58;97622.34;4088516;34;20223;-86
2022/01/25 06:32:46;;;;;;;;;;;-4.20;79.00;;;-5.76;75.03;97620.97;4088738;34;20247;-87
2022/01/25 06:35:15;;;;;;;;;;;-4.10;78.60;;;-5.72;75.18;97621.53;4088662;34;19903;-86
2022/01/25 06:37:44;;;;;;;;;;;-4.10;78.60;;;-5.65;75.03;97627.19;4112831;34;20216;-86
2022/01/25 06:40:16;;;;;;;;;;;-4.00;78.40;;;-5.61;74.76;97626.78;4091000;34;20087;-87
2022/01/25 06:43:05;;;;;;;;;;;-4.00;78.00;;;-5.57;74.60;97619.38;4090965;34;20205;-86
2022/01/25 06:45:39;;;;;;;;;;;-3.90;78.10;;;-5.52;74.93;97616.31;4113482;34;20213;-86
2022/01/25 06:48:07;;;;;;;;;;;-3.90;77.90;;;-5.47;74.25;97606.06;4113638;33;20201;-86
2022/01/25 06:50:36;;;;;;;;;;;-3.80;77.50;;;-5.43;74.06;97608.34;4115550;34;20229;-86
2022/01/25 06:53:05;;;;;;;;;;;-3.80;77.30;;;-5.39;73.70;97606.25;4093035;34;20118;-86
2022/01/25 06:55:34;;;;;;;;;;;-3.70;77.10;;;-5.34;73.79;97601.34;4091640;34;20225;-86
2022/01/25 06:58:03;;;;;;;;;;;-3.70;77.00;;;-5.31;73.54;97609.09;4090723;34;20212;-86
2022/01/25 07:00:32;;;;;;;;;;;-3.60;76.70;;;-5.28;73.70;97606.16;4113511;34;19975;-86
2022/01/25 07:03:00;;;;;;;;;;;-3.60;76.50;;;-5.26;73.44;97601.53;4089284;34;20473;-87
2022/01/25 07:05:29;;;;;;;;;;;-3.60;76.40;;;-5.27;73.43;97594.50;4110999;34;19911;-87
2022/01/25 07:07:57;;;;;;;;;;;-3.60;76.10;;;-5.23;73.31;97595.06;4104258;34;20539;-87
2022/01/25 07:10:26;;;;;;;;;;;-3.50;76.40;;;-5.20;73.26;97600.13;4104436;34;20224;-86
2022/01/25 07:12:56;;;;;;;;;;;-3.50;76.20;;;-5.19;72.72;97598.28;4104346;34;20084;-86
2022/01/25 07:15:24;;;;;;;;;;;-3.50;76.00;;;-5.16;72.89;97611.38;4104798;34;20553;-87
2022/01/25 07:17:53;;;;;;;;;;;-3.50;76.00;;;-5.15;72.61;97599.72;4080801;34;20237;-87
2022/01/25 07:20:22;;;;;;;;;;;-3.50;75.60;;;-5.13;72.67;97609.28;4080372;34;19914;-86
2022/01/25 07:22:51;;;;;;;;;;;-3.50;75.70;;;-5.13;72.71;97597.75;4078878;34;20464;-87
2022/01/25 07:25:19;;;;;;;;;;;-3.50;75.70;;;-5.11;73.06;97607.31;4078968;34;20185;-86
2022/01/25 07:27:48;;;;;;;;;;;-3.40;75.70;;;-5.07;72.44;97609.72;4100539;34;20222;-86
2022/01/25 07:30:18;;;;;;;;;;;-3.40;75.70;;;-5.09;72.60;97612.50;4077780;34;19911;-86
2022/01/25 07:32:46;;;;;;;;;;;-3.40;75.60;;;-5.07;72.65;97610.56;4078456;34;19903;-86
2022/01/25 07:35:15;;;;;;;;;;;-3.40;75.50;;;-5.12;72.52;97612.81;4078609;34;20236;-87
2022/01/25 07:37:44;;;;;;;;;;;-3.40;75.50;;;-5.12;72.26;97618.16;4078526;34;20199;-86
2022/01/25 07:40:15;;;;;;;;;;;-3.50;75.40;;;-5.15;72.45;97602.38;4102486;34;20208;-86
2022/01/25 07:42:46;;;;;;;;;;;-3.50;75.60;;;-5.16;72.56;97611.38;4078198;34;20223;-86
2022/01/25 07:45:15;;;;;;;;;;;-3.50;75.80;;;-5.15;72.86;97610.41;4079830;34;20233;-87
2022/01/25 07:47:45;;;;;;;;;;;-3.50;75.70;;;-5.13;72.73;97613.78;4080292;34;20180;-86
2022/01/25 07:50:14;;;;;;;;;;;-3.50;75.70;;;-5.11;72.34;97611.81;4080920;34;20206;-87
2022/01/25 07:52:43;;;;;;;;;;;-3.50;75.60;;;-5.06;72.54;97611.41;4102775;34;19903;-86
2022/01/25 07:55:11;;;;;;;;;;;-3.40;75.60;;;-5.04;72.51;97615.63;4081340;34;20216;-87
2022/01/25 07:57:40;;;;;;;;;;;-3.40;75.80;;;-5.02;72.83;97608.31;4106894;34;20537;-86
2022/01/25 08:00:11;;;;;;;;;;;-3.40;75.80;;;-5.01;72.42;97614.50;4087511;34;20196;-87
2022/01/25 08:02:44;;;;;;;;;;;-3.40;75.80;;;-5.01;72.85;97610.00;4110721;34;19903;-87
2022/01/25 08:05:15;;;;;;;;;;;-3.40;75.70;;;-4.98;72.56;97609.75;4083550;34;20193;-88
2022/01/25 08:07:43;;;;;;;;;;;-3.40;75.90;;;-4.95;72.82;97612.13;4107879;34;20209;-87
2022/01/25 08:10:12;;;;;;;;;;;-3.40;75.90;;;-4.93;72.51;97610.16;4088324;34;20233;-86
2022/01/25 08:12:40;;;;;;;;;;;-3.30;75.80;;;-4.91;72.64;97609.19;4110946;34;19903;-87
2022/01/25 08:15:11;;;;;;;;;;;-3.30;75.70;;;-4.91;71.96;97588.69;4088045;34;20524;-87
2022/01/25 08:17:39;;;;;;;;;;;-3.30;75.60;;;-4.86;71.85;97589.09;4110313;34;20200;-87
2022/01/25 08:20:08;;;;;;;;;;;-3.30;75.40;;;-4.83;71.96;97599.50;4088851;34;19910;-87
2022/01/25 08:22:40;;;;;;;;;;;-3.30;75.30;;;-4.83;71.43;97596.81;4132927;33;20240;-86
2022/01/25 08:25:10;;;;;;;;;;;-3.20;74.80;;;-4.84;71.60;97599.66;4107469;34;20226;-87
2022/01/25 08:27:38;;;;;;;;;;;-3.20;74.80;;;-4.82;71.36;97589.66;4111867;34;20203;-86
2022/01/25 08:30:08;;;;;;;;;;;-3.30;74.60;;;-4.80;71.27;97593.88;4113714;34;19903;-87
2022/01/25 08:32:36;;;;;;;;;;;-3.20;74.50;;;-4.77;71.98;97590.09;4112868;34;19910;-87
2022/01/25 08:35:06;;;;;;;;;;;-3.20;75.20;;;-4.72;71.99;97592.34;4090393;34;20231;-88
2022/01/25 08:37:35;;;;;;;;;;;-3.20;75.40;;;-4.70;71.53;97591.19;4112878;34;20084;-86
2022/01/25 08:40:06;;;;;;;;;;;-3.10;75.40;;;-4.67;71.76;97590.94;4115371;34;20213;-86
2022/01/25 08:42:36;;;;;;;;;;;-3.10;75.00;;;-4.67;71.66;97590.94;4115759;34;20223;-86
2022/01/25 08:45:05;;;;;;;;;;;-3.10;75.10;;;-4.61;71.66;97600.22;4092559;34;20187;-87
2022/01/25 08:47:33;;;;;;;;;;;-3.10;75.10;;;-4.59;72.18;97592.06;4114924;34;20203;-87
2022/01/25 08:50:02;;;;;;;;;;;-3.00;75.50;;;-4.60;72.10;97580.53;4138544;33;19903;-86
2022/01/25 08:52:31;;;;;;;;;;;-3.00;75.70;;;-4.57;72.69;97582.91;4092034;34;19911;-86
2022/01/25 08:54:59;;;;;;;;;;;-3.00;75.80;;;-4.56;72.31;97578.41;4113965;33;20237;-87
2022/01/25 08:57:29;;;;;;;;;;;-3.00;75.70;;;-4.55;72.24;97578.28;4115485;34;19904;-87
2022/01/25 08:59:58;;;;;;;;;;;-3.00;75.80;;;-4.54;72.68;97577.31;4114204;34;20107;-87
2022/01/25 09:02:26;;;;;;;;;;;-2.90;75.90;;;-4.56;72.53;97579.28;4091691;34;20204;-87
2022/01/25 09:04:55;;;;;;;;;;;-2.90;75.90;;;-4.53;72.37;97575.47;4114684;34;20114;-86
2022/01/25 09:07:23;;;;;;;;;;;-2.90;76.10;;;-4.58;72.79;97564.38;4114486;34;20210;-85
2022/01/25 09:09:52;;;;;;;;;;;-2.90;76.00;;;-4.56;72.68;97573.94;4114881;34;20092;-85
2022/01/25 09:12:20;;;;;;;;;;;-2.90;76.00;;;-4.56;72.50;97565.03;4112488;34;20191;-85
2022/01/25 09:14:50;;;;;;;;;;;-2.90;76.00;;;-4.59;72.71;97558.16;4089707;34;20107;-84
2022/01/25 09:17:19;;;;;;;;;;;-3.00;75.90;;;-4.57;72.30;97561.53;4113047;34;19911;-85
2022/01/25 09:19:48;;;;;;;;;;;-3.00;75.90;;;-4.57;72.80;97571.38;4112425;34;19903;-86
2022/01/25 09:22:16;;;;;;;;;;;-2.90;76.10;;;-4.57;72.92;97564.22;4113440;34;20202;-86
2022/01/25 09:24:45;;;;;;;;;;;-3.00;76.00;;;-4.58;73.12;97561.69;4091421;34;20099;-86
2022/01/25 09:27:13;;;;;;;;;;;-3.00;75.90;;;-4.60;72.58;97566.34;4114032;34;19907;-86
2022/01/25 09:29:42;;;;;;;;;;;-3.00;76.00;;;-4.68;72.89;97557.19;4114764;34;20225;-85
2022/01/25 09:32:12;;;;;;;;;;;-3.00;75.90;;;-4.69;72.56;97560.81;4091623;34;19911;-86
2022/01/25 09:34:41;;;;;;;;;;;-3.00;75.70;;;-4.74;72.26;97549.75;4114564;34;19903;-86
2022/01/25 09:37:09;;;;;;;;;;;-3.10;75.70;;;-4.77;72.65;97553.50;4116605;34;20197;-86
2022/01/25 09:39:38;;;;;;;;;;;-3.10;75.80;;;-4.78;72.96;97541.13;4093241;34;19903;-86
2022/01/25 09:42:09;;;;;;;;;;;-3.10;75.90;;;-4.79;73.07;97541.28;4114458;34;20217;-86
2022/01/25 09:44:37;;;;;;;;;;;-3.10;76.10;;;-4.80;72.95;97537.78;4116195;34;20228;-86
2022/01/25 09:47:07;;;;;;;;;;;-3.10;76.20;;;-4.83;72.62;97526.50;4093127;34;20217;-86
2022/01/25 09:49:37;;;;;;;;;;;-3.20;75.90;;;-4.84;73.04;97532.88;4113632;34;20215;-85
2022/01/25 09:52:07;;;;;;;;;;;-3.20;75.90;;;-4.84;72.79;97535.53;4089875;34;20201;-86
2022/01/25 09:54:36;;;;;;;;;;;-3.20;75.80;;;-4.88;73.03;97523.44;4088622;34;19903;-86
2022/01/25 09:57:05;;;;;;;;;;;-3.20;75.90;;;-4.90;72.63;97525.41;4110623;34;19903;-86
2022/01/25 09:59:34;;;;;;;;;;;-3.20;75.70;;;-4.91;72.70;97531.72;4088457;34;20211;-86
2022/01/25 10:02:03;;;;;;;;;;;-3.30;75.70;;;-4.93;72.07;97526.53;4111323;34;19904;-85
2022/01/25 10:04:35;;;;;;;;;;;-3.30;75.50;;;-4.98;72.54;97524.28;4087993;34;20206;-86
2022/01/25 10:07:05;;;;;;;;;;;-3.30;75.50;;;-4.98;72.49;97523.44;4110526;34;19922;-86
2022/01/25 10:09:34;;;;;;;;;;;-3.30;75.60;;;-5.01;72.62;97508.53;4087886;34;20059;-86
2022/01/25 10:12:17;;;;;;;;;;;-3.30;75.70;;;-5.05;72.55;97507.13;4110346;34;20323;-86
2022/01/25 10:14:55;;;;;;;;;;;-3.40;75.60;;;-5.06;72.56;97502.75;4110477;34;20220;-86
2022/01/25 10:17:41;;;;;;;;;;;-3.40;75.60;;;-5.07;72.42;97497.56;4087412;34;19918;-86
2022/01/25 10:20:51;;;;;;;;;;;-3.40;75.70;;;-5.09;72.58;97495.88;4066716;34;20434;-85
2022/01/25 10:23:30;;;;;;;;;;;-3.50;75.80;;;-5.08;72.96;97491.38;4110369;34;20186;-86
2022/01/25 10:26:17;;;;;;;;;;;-3.40;76.00;;;-5.03;72.61;97488.28;4114807;34;19922;-86
2022/01/25 10:28:46;;;;;;;;;;;-3.40;76.20;;;-5.04;73.13;97476.78;4110706;34;20552;-87
2022/01/25 10:31:15;;;;;;;;;;;-3.40;76.30;;;-4.99;73.35;97468.34;4112043;34;20199;-86
2022/01/25 10:33:52;;;;;;;;;;;-3.30;76.40;;;-4.98;73.13;97465.53;4090302;34;19914;-86
2022/01/25 10:36:24;;;;;;;;;;;-3.30;76.30;;;-4.97;73.28;97461.84;4090773;34;19903;-87
2022/01/25 10:38:55;;;;;;;;;;;-3.30;76.20;;;-4.96;72.82;97452.03;4113928;34;20579;-87
2022/01/25 10:42:41;;;;;;;;;;;-3.30;76.20;;;-4.91;73.11;97452.47;4089515;34;20206;-87
2022/01/25 10:45:10;;;;;;;;;;;-3.30;76.20;;;-4.89;72.66;97444.28;4112104;34;19918;-87
2022/01/25 10:47:40;;;;;;;;;;;-3.20;76.20;;;-4.86;73.11;97446.69;4090791;34;19904;-88
2022/01/25 10:50:16;;;;;;;;;;;-3.20;76.10;;;-4.86;72.81;97436.00;4114383;34;19910;-87
2022/01/25 10:52:45;;;;;;;;;;;-3.20;76.00;;;-4.84;72.86;97439.38;4112054;34;19914;-86
2022/01/25 10:55:16;;;;;;;;;;;-3.20;76.00;;;-4.87;73.20;97428.97;4089390;34;20202;-86
2022/01/25 10:57:57;;;;;;;;;;;-3.20;76.00;;;-4.84;72.84;97440.22;4110955;34;19914;-86
2022/01/25 11:00:30;;;;;;;;;;;-3.10;76.10;;;-4.86;72.81;97433.34;4088946;34;19903;-85
2022/01/25 11:02:59;;;;;;;;;;;-3.20;75.90;;;-4.84;72.79;97429.53;4112897;34;20208;-85
2022/01/25 11:05:28;;;;;;;;;;;-3.20;76.00;;;-4.83;72.82;97435.69;4103284;34;20215;-86
2022/01/25 11:07:56;;;;;;;;;;;-3.20;75.90;;;-4.87;73.01;97427.13;4080360;34;20200;-86
2022/01/25 11:10:26;;;;;;;;;;;-3.20;76.00;;;-4.91;72.97;97416.88;4080782;34;20219;-86
2022/01/25 11:13:04;;;;;;;;;;;-3.20;76.00;;;-4.89;72.83;97422.94;4102630;34;20279;-87
2022/01/25 11:15:33;;;;;;;;;;;-3.20;76.10;;;-4.91;72.69;97417.75;4102916;34;20220;-87
2022/01/25 11:18:09;;;;;;;;;;;-3.20;76.10;;;-4.93;72.89;97404.50;4078933;34;19948;-88
2022/01/25 11:21:07;;;;;;;;;;;-3.20;76.20;;;-4.90;73.16;97398.03;4102435;34;19907;-88
2022/01/25 11:23:37;;;;;;;;;;;-3.20;76.10;;;-4.90;73.27;97391.88;4080623;34;19903;-90
2022/01/25 11:26:09;;;;;;;;;;;-3.20;76.20;;;-4.94;73.05;97391.31;4081072;34;20212;-91
2022/01/25 11:28:39;;;;;;;;;;;-3.20;76.00;;;-4.91;72.98;97403.53;4105530;34;20210;-90
2022/01/25 11:31:12;;;;;;;;;;;-3.20;76.00;;;-4.93;72.98;97390.34;4104216;34;19903;-88
2022/01/25 11:33:44;;;;;;;;;;;-3.20;76.00;;;-4.96;73.02;97388.78;4104632;34;20204;-88
2022/01/25 11:36:12;;;;;;;;;;;-3.20;76.00;;;-4.96;73.52;97378.09;4083135;34;19918;-88
2022/01/25 11:38:42;;;;;;;;;;;-3.30;76.10;;;-4.95;73.02;97377.09;4084057;34;20215;-89
2022/01/25 11:41:16;;;;;;;;;;;-3.30;76.10;;;-4.97;73.07;97376.41;4107016;34;20184;-89
2022/01/25 11:43:45;;;;;;;;;;;-3.30;76.20;;;-4.97;73.16;97370.22;4105794;34;19979;-89
2022/01/25 11:46:13;;;;;;;;;;;-3.30;76.20;;;-5.04;73.39;97359.28;4118188;33;20212;-89
2022/01/25 11:48:44;;;;;;;;;;;-3.30;76.40;;;-5.06;72.92;97361.25;4083081;34;19930;-89
2022/01/25 11:51:15;;;;;;;;;;;-3.40;76.30;;;-5.06;73.35;97365.75;4094445;33;20438;-88
2022/01/25 11:53:46;;;;;;;;;;;-3.40;76.40;;;-5.06;73.48;97361.25;4083103;34;20236;-88
2022/01/25 11:56:16;;;;;;;;;;;-3.40;76.50;;;-5.07;73.41;97362.22;4081985;34;20203;-88
2022/01/25 11:58:54;;;;;;;;;;;-3.40;76.40;;;-5.08;73.36;97363.22;4085132;34;19907;-89
2022/01/25 12:01:24;;;;;;;;;;;-3.40;76.40;;;-5.12;73.67;97351.16;4088949;34;20231;-89
2022/01/25 12:03:53;;;;;;;;;;;-3.40;76.50;;;-5.10;73.58;97349.19;4114850;34;19958;-88
2022/01/25 12:06:26;;;;;;;;;;;-3.40;76.50;;;-5.13;73.52;97344.97;4113485;34;19934;-89
2022/01/25 12:09:15;;;;;;;;;;;-3.40;76.50;;;-5.13;73.39;97344.97;4112246;34;19910;-87
2022/01/25 12:16:26;;;;;;;;;;;-3.40;76.40;;;-5.12;73.25;97340.47;4087829;33;20152;-89
2022/01/25 12:18:59;;;;;;;;;;;-3.50;76.50;;;-5.17;73.66;97337.38;4091052;34;19903;-87
2022/01/25 12:22:15;;;;;;;;;;;-3.50;76.50;;;-5.15;73.35;97341.59;4091442;34;19903;-88
2022/01/25 12:25:15;;;;;;;;;;;-3.50;76.50;;;-5.14;73.54;97342.44;4113597;34;19911;-88
2022/01/25 12:27:52;;;;;;;;;;;-3.50;76.60;;;-5.15;73.30;97341.59;4112260;34;20201;-86
2022/01/25 12:30:32;;;;;;;;;;;-3.50;76.60;;;-5.16;73.35;97339.06;4089881;34;20216;-87
2022/01/25 12:33:03;;;;;;;;;;;-3.50;76.60;;;-5.16;73.40;97339.06;4087829;34;20193;-87
2022/01/25 12:35:44;;;;;;;;;;;-3.50;76.60;;;-5.16;73.48;97341.75;4106763;34;19926;-88
2022/01/25 12:38:24;;;;;;;;;;;-3.50;76.60;;;-5.20;73.47;97335.00;4083758;34;20195;-87
2022/01/25 12:40:58;;;;;;;;;;;-3.50;76.60;;;-5.22;73.61;97337.81;4106945;34;20530;-87
2022/01/25 12:43:29;;;;;;;;;;;-3.50;76.60;;;-5.22;73.45;97334.28;4084136;34;19915;-87
2022/01/25 12:46:00;;;;;;;;;;;-3.50;76.70;;;-5.22;73.39;97334.28;4106865;34;19903;-89
2022/01/25 12:48:31;;;;;;;;;;;-3.60;76.60;;;-5.24;73.75;97334.44;4105056;34;20026;-88
2022/01/25 12:51:03;;;;;;;;;;;-3.60;76.60;;;-5.25;73.54;97335.41;4081455;34;20236;-88
2022/01/25 12:53:34;;;;;;;;;;;-3.60;76.70;;;-5.30;73.53;97332.34;4124302;33;20206;-88